2022年9月25日

时间 代码 天气 温度 能见度 天花板 METAR/SPECI
14:00
V
25 °C 10 km+ - 090° 090° 15 kt METAR AYMH 250400Z 09015KT 9999 HZ SCT040 25/12 Q1018
13:00
V
24 °C 10 km+ - 090° 090° 15 kt METAR AYMH 250300Z 09015KT 9999 HZ SCT030 24/13 Q1019
12:00
V
24 °C 10 km+ - 090° 090° 15 kt METAR AYMH 250200Z 09015KT 9999 HZ SCT030 24/14 Q1020
11:00
V
23 °C 10 km+ - 090° 090° 15 kt METAR AYMH 250100Z 09015KT 9999 HZ SCT030 23/15 Q1021
10:00
V
20 °C 10 km+ 3.000 ft 090° 090° 10 kt METAR AYMH 250000Z 09010KT 9999 HZ BKN030 20/15 Q1022
08:00
M
16 °C 10 km+ 2.000 ft Var Var 4 kt METAR AYMH 242200Z VRB04KT 9999 HZ BKN020 16/16 Q1022
07:00
M
15 °C 10 km+ 1.500 ft Var 000° 0 kt METAR AYMH 242100Z 00000KT 9999 HZ BKN015 15/15 Q1021 RMK
06:00
L
14 °C 0 m 800 ft Var 000° 0 kt METAR AYMH 242000Z 00000KT 4000M FG BKN008 14/14 Q1020=
05:00
L
14 °C 0 m 200 ft Var 000° 0 kt METAR AYMH 241900Z 00000KT 1000M FG OVC002 14/14 Q1019=

2022年9月24日

时间 代码 天气 温度 能见度 天花板 METAR/SPECI
19:00
M
16 °C 10 km+ 2.000 ft Var Var 4 kt METAR AYMH 240900Z VRB04KT 9999 -SHRA BKN020 16/15 Q1019
18:00
M
16 °C 10 km+ 2.000 ft Var Var 4 kt METAR AYMH 240800Z VRB04KT 9999 -SHRA BKN020 16/15 Q1018
17:00
M
16 °C 10 km+ 2.500 ft 170° 170° 10 kt METAR AYMH 240700Z 17010KT 9999 -SHRA BKN025 16/15 Q1018
16:00
M
21 °C 10 km+ 2.500 ft 060° 060° 10 kt METAR AYMH 240600Z 06010KT 9999 -SHRA BKN025 21/16 Q1016
15:00
V
24 °C 10 km+ - 040° 040° 6 kt METAR AYMH 240500Z 04006KT 9999 HZ SCT040 24/15 Q1015
14:00
V
25 °C 10 km+ - 340° 340° 5 kt METAR AYMH 240400Z 34005KT 9999 HZ SCT040 25/14 Q1016
13:00
V
25 °C 10 km+ - 140° 140° 5 kt METAR AYMH 240300Z 14005KT 9999 HZ SCT040 25/14 Q1017
12:00
V
23 °C 10 km+ - 210° 210° 8 kt METAR AYMH 240200Z 21008KT 9999 HZ SCT040 23/14 Q1018
11:00
V
23 °C 10 km+ - Var Var 4 kt METAR AYMH 240100Z VRB04KT 9999 HZ SCT040 23/15 Q1020
10:00
V
20 °C 10 km+ - Var Var 4 kt METAR AYMH 240000Z VRB04KT 9999 HZ FEW010 SCT040 20/14 Q1021
06:00
V
13 °C 10 km+ - Var 000° 0 kt METAR AYMH 232000Z 00000KT 9999 HZ SCT030 13/13 Q1019=
05:00
M
13 °C 10 km+ 2.000 ft Var 000° 0 kt METAR AYMH 231900Z 00000KT 9999 FG BKN020 13/13 Q1019

2022年9月23日

时间 代码 天气 温度 能见度 天花板 METAR/SPECI
19:00
V
17 °C 10 km+ 4.000 ft 270° 270° 15 - 25 kt METAR AYMH 230900Z 27015G25KT 9999 -SHRA BKN040 17/15 Q1019
18:00
V
18 °C 10 km+ 3.000 ft 270° 270° 15 - 25 kt METAR AYMH 230800Z 27015G25KT 9999 -SHRA BKN030 18/15 Q1017=
17:00
V
21 °C 10 km+ - 270° 270° 15 - 25 kt METAR AYMH 230700Z 27015G25KT 9999 SCT040 21/16 Q1016
15:00
V
23 °C 10 km+ - 270° 270° 15 - 25 kt METAR AYMH 230500Z 27015G25KT 9999 SCT040 23/16 Q1016
14:00
V
25 °C 10 km+ - 270° 270° 10 - 20 kt METAR AYMH 230400Z 27010G20KT 9999 SCT040 25/15 Q1016
13:00
V
25 °C 10 km+ - 270° 270° 10 - 20 kt METAR AYMH 230300Z 27010G20KT 9999 HZ FEW010 SCT040 25/15 Q1018
12:00
V
23 °C 10 km+ 3.000 ft Var Var 4 kt METAR AYMH 230200Z VRB04KT 9999 HZ BKN030 23/16 Q1019=
11:00
V
22 °C 10 km+ 3.000 ft Var Var 4 kt METAR AYMH 230100Z VRB04KT 9999 HZ BKN030 22/16 Q1021
10:00
V
19 °C 10 km+ - Var Var 4 kt METAR AYMH 230000Z VRB04KT 9999 HZ SCT020 SCT040 19/15 Q1022
较旧的数据

我们和第三方通过cookies跟踪您在我们网站上的上网行为。如果您继续,我们认为您同意我们的cookie政策。 了解更多